createdAt,value
2016-10-18T00:00:08.039Z,0
2016-10-18T00:01:08.023Z,0
2016-10-18T00:02:08.010Z,0
2016-10-18T00:03:07.985Z,0
2016-10-18T00:04:07.975Z,0
2016-10-18T00:05:07.948Z,0
2016-10-18T00:06:07.929Z,0
2016-10-18T00:07:07.921Z,0
2016-10-18T00:08:07.946Z,0
2016-10-18T00:09:07.925Z,0
2016-10-18T00:10:07.895Z,0
2016-10-18T00:11:07.879Z,0
2016-10-18T00:12:07.917Z,0
2016-10-18T00:13:07.859Z,0
2016-10-18T00:14:07.818Z,0
2016-10-18T00:15:07.845Z,0
2016-10-18T00:16:07.790Z,0
2016-10-18T00:17:07.791Z,0
2016-10-18T00:18:07.796Z,0
2016-10-18T00:19:07.763Z,0
2016-10-18T00:20:07.753Z,0
2016-10-18T00:21:07.749Z,0
2016-10-18T00:22:07.751Z,0
2016-10-18T00:23:07.737Z,0
2016-10-18T00:24:07.709Z,0
2016-10-18T00:25:07.677Z,0
2016-10-18T00:26:07.664Z,0
2016-10-18T00:27:07.681Z,0
2016-10-18T00:28:07.677Z,0
2016-10-18T00:29:07.657Z,0
2016-10-18T00:30:07.932Z,0
2016-10-18T00:31:07.588Z,0
2016-10-18T00:32:07.608Z,0
2016-10-18T00:33:07.606Z,0
2016-10-18T00:34:07.564Z,0
2016-10-18T00:35:07.562Z,0
2016-10-18T00:36:07.542Z,0
2016-10-18T00:37:07.496Z,0
2016-10-18T00:38:07.499Z,0
2016-10-18T00:39:07.515Z,0
2016-10-18T00:40:07.457Z,0
2016-10-18T00:41:07.475Z,0
2016-10-18T00:42:07.433Z,0
2016-10-18T00:43:07.436Z,0
2016-10-18T00:44:07.433Z,0
2016-10-18T00:45:07.702Z,0
2016-10-18T00:46:07.369Z,0
2016-10-18T00:47:07.373Z,0
2016-10-18T00:48:07.383Z,0
2016-10-18T00:49:07.640Z,0
2016-10-18T00:50:07.928Z,0
2016-10-18T00:51:07.384Z,0
2016-10-18T00:52:07.307Z,0
2016-10-18T00:53:07.268Z,0
2016-10-18T00:54:07.259Z,0
2016-10-18T00:55:07.244Z,0
2016-10-18T00:56:07.252Z,0
2016-10-18T00:57:07.228Z,0
2016-10-18T00:58:07.248Z,0
2016-10-18T00:59:07.206Z,0
2016-10-18T01:00:07.213Z,0
2016-10-18T01:01:07.186Z,0
2016-10-18T01:02:07.154Z,0
2016-10-18T01:03:07.148Z,0
2016-10-18T01:04:07.134Z,0
2016-10-18T01:05:07.133Z,0
2016-10-18T01:06:07.219Z,0
2016-10-18T01:07:07.085Z,0
2016-10-18T01:08:07.083Z,0
2016-10-18T01:09:07.085Z,0
2016-10-18T01:10:07.031Z,0
2016-10-18T01:11:07.026Z,0
2016-10-18T01:12:06.993Z,0
2016-10-18T01:13:07.010Z,0
2016-10-18T01:14:07.000Z,0
2016-10-18T01:15:06.977Z,0
2016-10-18T01:16:06.936Z,0
2016-10-18T01:17:06.947Z,0
2016-10-18T01:18:06.941Z,0
2016-10-18T01:19:06.906Z,0
2016-10-18T01:20:06.900Z,0
2016-10-18T01:21:06.889Z,0
2016-10-18T01:22:06.857Z,0
2016-10-18T01:23:06.884Z,0
2016-10-18T01:24:06.835Z,0
2016-10-18T01:25:06.833Z,0
2016-10-18T01:26:06.816Z,0
2016-10-18T01:27:06.834Z,0
2016-10-18T01:28:06.769Z,0
2016-10-18T01:29:06.759Z,0
2016-10-18T01:30:06.728Z,0
2016-10-18T01:31:06.727Z,0
2016-10-18T01:32:07.002Z,0
2016-10-18T01:33:06.700Z,0
2016-10-18T01:34:06.688Z,0
2016-10-18T01:35:06.708Z,0
2016-10-18T01:36:06.640Z,0
2016-10-18T01:37:06.640Z,0
2016-10-18T01:38:06.604Z,0
2016-10-18T01:39:06.595Z,0
2016-10-18T01:40:06.571Z,0
2016-10-18T01:41:06.565Z,0
2016-10-18T01:42:06.569Z,0
2016-10-18T01:43:06.530Z,0
2016-10-18T01:44:06.522Z,0
2016-10-18T01:45:06.513Z,0
2016-10-18T01:46:06.474Z,0
2016-10-18T01:47:06.472Z,0
2016-10-18T01:48:06.520Z,0
2016-10-18T01:49:06.461Z,0
2016-10-18T01:50:06.441Z,0
2016-10-18T01:51:06.419Z,0
2016-10-18T01:52:06.377Z,0
2016-10-18T01:53:06.394Z,0
2016-10-18T01:54:06.373Z,0
2016-10-18T01:55:06.326Z,0
2016-10-18T01:56:06.305Z,0
2016-10-18T01:57:06.310Z,0
2016-10-18T01:58:06.300Z,0
2016-10-18T01:59:06.314Z,0
2016-10-18T02:00:06.590Z,0
2016-10-18T02:01:06.255Z,0
2016-10-18T02:02:06.283Z,0
2016-10-18T02:03:06.247Z,0
2016-10-18T02:04:06.202Z,0
2016-10-18T02:05:06.203Z,0
2016-10-18T02:06:06.232Z,0
2016-10-18T02:07:06.161Z,0
2016-10-18T02:08:06.137Z,0
2016-10-18T02:09:06.154Z,0
2016-10-18T02:10:06.108Z,0
2016-10-18T02:11:06.110Z,0
2016-10-18T02:12:06.070Z,0
2016-10-18T02:13:06.122Z,0
2016-10-18T02:14:06.059Z,0
2016-10-18T02:15:06.046Z,0
2016-10-18T02:16:06.027Z,0
2016-10-18T02:17:06.008Z,0
2016-10-18T02:18:05.995Z,0
2016-10-18T02:19:05.980Z,0
2016-10-18T02:20:05.953Z,0
2016-10-18T02:21:05.951Z,0
2016-10-18T02:22:05.928Z,0
2016-10-18T02:23:05.909Z,0
2016-10-18T02:24:05.955Z,0
2016-10-18T02:25:05.886Z,0
2016-10-18T02:26:05.859Z,0
2016-10-18T02:27:05.862Z,0
2016-10-18T02:28:05.845Z,0
2016-10-18T02:29:05.804Z,0
2016-10-18T02:30:05.825Z,0
2016-10-18T02:31:05.791Z,0
2016-10-18T02:32:05.769Z,0
2016-10-18T02:33:05.765Z,0
2016-10-18T02:34:05.756Z,0
2016-10-18T02:35:05.728Z,0
2016-10-18T02:36:05.729Z,0
2016-10-18T02:37:05.704Z,0
2016-10-18T02:38:05.696Z,0
2016-10-18T02:39:05.684Z,0
2016-10-18T02:40:05.642Z,0
2016-10-18T02:41:05.671Z,0
2016-10-18T02:42:05.659Z,0
2016-10-18T02:43:05.656Z,0
2016-10-18T02:44:05.632Z,0
2016-10-18T02:45:05.591Z,0
2016-10-18T02:46:05.633Z,0
2016-10-18T02:47:05.557Z,0
2016-10-18T02:48:05.538Z,0
2016-10-18T02:49:05.523Z,0
2016-10-18T02:50:05.520Z,0
2016-10-18T02:51:05.546Z,0
2016-10-18T02:52:05.481Z,0
2016-10-18T02:53:05.465Z,0
2016-10-18T02:54:05.483Z,0
2016-10-18T02:55:05.416Z,0
2016-10-18T02:56:05.482Z,0
2016-10-18T02:57:05.420Z,0
2016-10-18T02:58:05.403Z,0
2016-10-18T02:59:05.410Z,0
2016-10-18T03:00:05.379Z,0
2016-10-18T03:01:05.331Z,0
2016-10-18T03:02:05.622Z,0
2016-10-18T03:03:05.317Z,0
2016-10-18T03:04:05.339Z,0
2016-10-18T03:05:05.277Z,0
2016-10-18T03:06:05.291Z,0
2016-10-18T03:07:05.259Z,0
2016-10-18T03:08:05.230Z,0
2016-10-18T03:09:05.254Z,0
2016-10-18T03:10:05.217Z,0
2016-10-18T03:11:05.215Z,0
2016-10-18T03:12:05.171Z,0
2016-10-18T03:13:05.171Z,0
2016-10-18T03:14:05.162Z,0
2016-10-18T03:15:05.128Z,0
2016-10-18T03:16:05.161Z,0
2016-10-18T03:17:05.149Z,0
2016-10-18T03:18:05.112Z,0
2016-10-18T03:19:05.106Z,0
2016-10-18T03:20:05.368Z,0
2016-10-18T03:21:05.080Z,0
2016-10-18T03:22:05.061Z,0
2016-10-18T03:23:05.028Z,0
2016-10-18T03:24:05.038Z,0
2016-10-18T03:25:05.025Z,0
2016-10-18T03:26:05.297Z,0
2016-10-18T03:27:04.962Z,0
2016-10-18T03:28:04.951Z,0
2016-10-18T03:29:04.950Z,0
2016-10-18T03:30:04.961Z,0
2016-10-18T03:31:04.921Z,0
2016-10-18T03:32:04.905Z,0
2016-10-18T03:33:04.901Z,0
2016-10-18T03:34:04.872Z,0
2016-10-18T03:35:04.882Z,0
2016-10-18T03:36:04.843Z,0
2016-10-18T03:37:04.808Z,0
2016-10-18T03:38:04.829Z,0
2016-10-18T03:39:04.794Z,0
2016-10-18T03:40:04.812Z,0
2016-10-18T03:41:04.782Z,0
2016-10-18T03:42:04.759Z,0
2016-10-18T03:43:04.739Z,0
2016-10-18T03:44:04.737Z,0
2016-10-18T03:45:04.714Z,0
2016-10-18T03:46:04.717Z,0
2016-10-18T03:47:04.684Z,0
2016-10-18T03:48:04.678Z,0
2016-10-18T03:49:04.650Z,0
2016-10-18T03:50:04.660Z,0
2016-10-18T03:51:04.655Z,0
2016-10-18T03:52:04.598Z,0
2016-10-18T03:53:04.594Z,0
2016-10-18T03:54:04.659Z,0
2016-10-18T03:55:04.594Z,0
2016-10-18T03:56:04.550Z,0
2016-10-18T03:57:04.591Z,0
2016-10-18T03:58:04.528Z,0
2016-10-18T03:59:04.523Z,0
2016-10-18T04:00:04.476Z,0
2016-10-18T04:01:04.503Z,0
2016-10-18T04:02:04.468Z,0
2016-10-18T04:03:04.476Z,0
2016-10-18T04:04:04.451Z,0
2016-10-18T04:05:04.434Z,0
2016-10-18T04:06:04.424Z,0
2016-10-18T04:07:04.410Z,0
2016-10-18T04:08:04.376Z,0
2016-10-18T04:09:04.356Z,0
2016-10-18T04:10:04.344Z,0
2016-10-18T04:11:04.367Z,0
2016-10-18T04:12:04.341Z,0
2016-10-18T04:13:04.303Z,0
2016-10-18T04:14:04.312Z,0
2016-10-18T04:15:04.271Z,0
2016-10-18T04:16:04.257Z,0
2016-10-18T04:17:04.564Z,0
2016-10-18T04:18:04.209Z,0
2016-10-18T04:19:04.225Z,0
2016-10-18T04:20:04.198Z,0
2016-10-18T04:21:04.170Z,0
2016-10-18T04:22:04.158Z,0
2016-10-18T04:23:04.163Z,0
2016-10-18T04:24:04.160Z,0
2016-10-18T04:25:04.150Z,0
2016-10-18T04:26:04.104Z,0
2016-10-18T04:27:04.086Z,0
2016-10-18T04:28:04.113Z,0
2016-10-18T04:29:04.067Z,0
2016-10-18T04:30:04.060Z,0
2016-10-18T04:31:04.030Z,0
2016-10-18T04:32:04.029Z,0
2016-10-18T04:33:03.991Z,0
2016-10-18T04:34:03.968Z,0
2016-10-18T04:35:04.026Z,0
2016-10-18T04:36:03.937Z,0
2016-10-18T04:37:03.954Z,0
2016-10-18T04:38:03.932Z,0
2016-10-18T04:39:03.943Z,0
2016-10-18T04:40:03.916Z,0
2016-10-18T04:41:03.894Z,0
2016-10-18T04:42:03.862Z,0
2016-10-18T04:43:03.847Z,0
2016-10-18T04:44:03.893Z,0
2016-10-18T04:45:03.816Z,0
2016-10-18T04:46:03.809Z,0
2016-10-18T04:47:03.790Z,0
2016-10-18T04:48:04.080Z,0
2016-10-18T04:49:03.777Z,0
2016-10-18T04:50:03.752Z,0
2016-10-18T04:51:03.745Z,0
2016-10-18T04:52:03.708Z,0
2016-10-18T04:53:03.678Z,0
2016-10-18T04:54:03.696Z,0
2016-10-18T04:55:03.666Z,0
2016-10-18T04:56:03.658Z,0
2016-10-18T04:57:03.672Z,0
2016-10-18T04:58:03.619Z,0
2016-10-18T04:59:03.599Z,0
2016-10-18T05:00:03.605Z,0
2016-10-18T05:01:03.621Z,0
2016-10-18T05:02:03.568Z,0
2016-10-18T05:03:03.853Z,0
2016-10-18T05:04:03.563Z,0
2016-10-18T05:05:03.544Z,0
2016-10-18T05:06:03.491Z,0
2016-10-18T05:07:03.485Z,0
2016-10-18T05:08:03.781Z,0
2016-10-18T05:09:03.444Z,0
2016-10-18T05:10:03.459Z,0
2016-10-18T05:11:03.429Z,0
2016-10-18T05:12:03.408Z,0
2016-10-18T05:13:03.417Z,0
2016-10-18T05:14:03.386Z,0
2016-10-18T05:15:03.367Z,4
2016-10-18T05:16:03.663Z,4
2016-10-18T05:17:03.346Z,4
2016-10-18T05:18:03.356Z,4
2016-10-18T05:19:03.325Z,4
2016-10-18T05:20:03.618Z,4
2016-10-18T05:21:03.300Z,8
2016-10-18T05:22:03.264Z,8
2016-10-18T05:23:03.255Z,8
2016-10-18T05:24:03.237Z,12
2016-10-18T05:25:03.190Z,12
2016-10-18T05:26:03.259Z,12
2016-10-18T05:27:03.216Z,16
2016-10-18T05:28:03.208Z,20
2016-10-18T05:29:03.156Z,20
2016-10-18T05:30:03.109Z,24
2016-10-18T05:31:03.117Z,32
2016-10-18T05:32:03.432Z,32
2016-10-18T05:33:03.090Z,40
2016-10-18T05:34:03.054Z,44
2016-10-18T05:35:03.056Z,56
2016-10-18T05:36:03.025Z,60
2016-10-18T05:37:03.008Z,68
2016-10-18T05:38:02.995Z,80
2016-10-18T05:39:03.000Z,84
2016-10-18T05:40:02.963Z,92
2016-10-18T05:41:02.947Z,104
2016-10-18T05:42:03.250Z,108
2016-10-18T05:43:02.921Z,120
2016-10-18T05:44:02.926Z,124
2016-10-18T05:45:02.904Z,136
2016-10-18T05:46:02.873Z,144
2016-10-18T05:47:02.876Z,148
2016-10-18T05:48:02.901Z,156
2016-10-18T05:49:02.847Z,164
2016-10-18T05:50:02.799Z,180
2016-10-18T05:51:02.799Z,192
2016-10-18T05:52:02.792Z,208
2016-10-18T05:53:02.778Z,224
2016-10-18T05:54:02.740Z,240
2016-10-18T05:55:02.738Z,264
2016-10-18T05:56:02.729Z,280
2016-10-18T05:57:02.718Z,296
2016-10-18T05:58:02.699Z,308
2016-10-18T05:59:02.687Z,320
2016-10-18T06:00:02.636Z,340
2016-10-18T06:01:02.665Z,348
2016-10-18T06:02:02.622Z,368
2016-10-18T06:03:02.600Z,396
2016-10-18T06:04:02.586Z,424
2016-10-18T06:05:02.552Z,456
2016-10-18T06:06:02.560Z,504
2016-10-18T06:07:02.526Z,540
2016-10-18T06:08:02.537Z,600
2016-10-18T06:09:02.522Z,672
2016-10-18T06:10:02.820Z,748
2016-10-18T06:11:02.490Z,812
2016-10-18T06:12:02.440Z,884
2016-10-18T06:13:02.424Z,968
2016-10-18T06:14:02.438Z,1072
2016-10-18T06:15:02.391Z,1200
2016-10-18T06:16:02.376Z,1364
2016-10-18T06:17:02.376Z,1484
2016-10-18T06:18:02.357Z,1584
2016-10-18T06:19:02.333Z,1660
2016-10-18T06:20:02.651Z,1684
2016-10-18T06:21:02.348Z,1756
2016-10-18T06:22:02.314Z,1844
2016-10-18T06:23:02.272Z,1992
2016-10-18T06:24:02.254Z,2076
2016-10-18T06:25:02.236Z,2096
2016-10-18T06:26:02.233Z,2104
2016-10-18T06:27:02.225Z,2060
2016-10-18T06:28:02.206Z,2028
2016-10-18T06:29:02.196Z,2028
2016-10-18T06:30:02.173Z,2084
2016-10-18T06:31:02.158Z,2144
2016-10-18T06:32:02.169Z,2244
2016-10-18T06:33:02.115Z,2380
2016-10-18T06:34:02.081Z,2492
2016-10-18T06:35:02.080Z,2592
2016-10-18T06:36:02.075Z,2612
2016-10-18T06:37:02.354Z,2588
2016-10-18T06:38:02.040Z,2508
2016-10-18T06:39:02.032Z,2440
2016-10-18T06:40:02.021Z,2388
2016-10-18T06:41:02.005Z,2292
2016-10-18T06:42:01.967Z,2148
2016-10-18T06:43:01.951Z,2068
2016-10-18T06:44:01.941Z,1940
2016-10-18T06:45:01.920Z,1868
2016-10-18T06:46:01.931Z,1804
2016-10-18T06:47:01.900Z,1768
2016-10-18T06:48:01.868Z,1756
2016-10-18T06:49:01.859Z,1704
2016-10-18T06:50:01.947Z,1696
2016-10-18T06:51:01.826Z,1728
2016-10-18T06:52:01.820Z,1848
2016-10-18T06:53:01.794Z,2020
2016-10-18T06:54:01.779Z,2076
2016-10-18T06:55:01.772Z,2184
2016-10-18T06:56:01.757Z,2372
2016-10-18T06:57:01.726Z,2512
2016-10-18T06:58:01.715Z,2676
2016-10-18T06:59:01.710Z,2844
2016-10-18T07:00:01.696Z,3088
2016-10-18T07:01:01.658Z,3272
2016-10-18T07:02:01.650Z,3120
2016-10-18T07:03:01.661Z,3028
2016-10-18T07:04:01.608Z,2912
2016-10-18T07:05:01.607Z,2868
2016-10-18T07:06:01.796Z,2900
2016-10-18T07:07:02.081Z,2892
2016-10-18T07:08:01.538Z,2944
2016-10-18T07:09:01.529Z,2936
2016-10-18T07:10:01.546Z,2868
2016-10-18T07:11:01.555Z,2808
2016-10-18T07:12:01.541Z,2736
2016-10-18T07:13:01.474Z,2624
2016-10-18T07:14:01.536Z,2524
2016-10-18T07:15:01.454Z,2504
2016-10-18T07:16:01.461Z,2484
2016-10-18T07:17:01.439Z,2412
2016-10-18T07:18:01.423Z,2368
2016-10-18T07:19:01.378Z,2328
2016-10-18T07:20:01.374Z,2332
2016-10-18T07:21:01.377Z,2364
2016-10-18T07:22:01.329Z,2484
2016-10-18T07:23:01.321Z,2524
2016-10-18T07:24:01.308Z,2536
2016-10-18T07:25:01.331Z,2508
2016-10-18T07:26:01.271Z,2568
2016-10-18T07:27:01.281Z,2500
2016-10-18T07:28:01.237Z,2376
2016-10-18T07:29:01.250Z,2456
2016-10-18T07:30:01.234Z,2448
2016-10-18T07:31:01.211Z,2368
2016-10-18T07:32:01.167Z,2400
2016-10-18T07:33:01.158Z,2500
2016-10-18T07:34:01.165Z,2624
2016-10-18T07:35:01.757Z,2560
2016-10-18T07:36:01.311Z,2440
2016-10-18T07:37:01.114Z,2348
2016-10-18T07:38:01.096Z,2268
2016-10-18T07:39:01.087Z,2424
2016-10-18T07:40:01.065Z,2612
2016-10-18T07:41:01.016Z,2640
2016-10-18T07:42:01.025Z,2688
2016-10-18T07:43:01.020Z,2576
2016-10-18T07:44:01.050Z,2348
2016-10-18T07:45:00.982Z,2236
2016-10-18T07:46:00.963Z,2236
2016-10-18T07:47:00.957Z,2264
2016-10-18T07:48:00.922Z,2312
2016-10-18T07:49:00.907Z,2376
2016-10-18T07:50:00.896Z,2404
2016-10-18T07:51:00.861Z,2440
2016-10-18T07:52:00.858Z,2512
2016-10-18T07:53:00.862Z,2440
2016-10-18T07:54:00.863Z,2368
2016-10-18T07:55:00.860Z,2292
2016-10-18T07:56:00.813Z,2304
2016-10-18T07:57:00.800Z,2436
2016-10-18T07:58:00.779Z,2632
2016-10-18T07:59:00.769Z,2724
2016-10-18T08:00:00.753Z,2760
2016-10-18T08:01:00.752Z,2660
2016-10-18T08:02:00.710Z,2684
2016-10-18T08:03:00.684Z,2800
2016-10-18T08:04:00.680Z,2864
2016-10-18T08:05:00.907Z,2952
2016-10-18T08:06:00.909Z,3020
2016-10-18T08:07:00.650Z,3128
2016-10-18T08:08:00.614Z,3288
2016-10-18T08:09:00.623Z,3548
2016-10-18T08:10:00.609Z,3684
2016-10-18T08:11:00.900Z,3800
2016-10-18T08:12:00.854Z,3976
2016-10-18T08:13:00.553Z,4048
2016-10-18T08:14:00.536Z,3876
2016-10-18T08:15:00.509Z,3792
2016-10-18T08:16:00.520Z,3744
2016-10-18T08:17:00.487Z,3732
2016-10-18T08:18:00.461Z,3812
2016-10-18T08:19:00.448Z,3892
2016-10-18T08:20:00.421Z,4024
2016-10-18T08:21:00.437Z,4124
2016-10-18T08:22:00.417Z,4136
2016-10-18T08:23:00.416Z,4056
2016-10-18T08:24:00.390Z,4004
2016-10-18T08:25:00.354Z,3848
2016-10-18T08:26:00.343Z,3692
2016-10-18T08:27:00.352Z,3556
2016-10-18T08:28:00.368Z,3536
2016-10-18T08:29:00.311Z,3568
2016-10-18T08:30:00.291Z,3676
2016-10-18T08:31:00.277Z,3732
2016-10-18T08:32:00.255Z,3856
2016-10-18T08:33:00.466Z,3928
2016-10-18T08:34:00.426Z,3860
2016-10-18T08:35:00.446Z,3860
2016-10-18T08:36:00.431Z,3976
2016-10-18T08:37:00.198Z,4296
2016-10-18T08:38:00.189Z,4620
2016-10-18T08:39:00.172Z,5004
2016-10-18T08:40:00.366Z,5408
2016-10-18T08:41:00.169Z,5656
2016-10-18T08:42:00.145Z,5764
2016-10-18T08:43:00.134Z,5928
2016-10-18T08:44:00.128Z,6276
2016-10-18T08:45:00.088Z,6568
2016-10-18T08:46:00.057Z,6276
2016-10-18T08:47:00.071Z,6132
2016-10-18T08:48:00.048Z,6156
2016-10-18T08:49:00.033Z,6200
2016-10-18T08:50:00.039Z,5700
2016-10-18T08:50:59.990Z,5360
2016-10-18T08:52:00.000Z,6084
2016-10-18T08:53:00.002Z,6624
2016-10-18T08:53:59.934Z,7360
2016-10-18T08:54:59.920Z,8356
2016-10-18T08:56:00.044Z,8548
2016-10-18T08:56:59.930Z,9648
2016-10-18T08:57:59.951Z,9328
2016-10-18T08:58:59.919Z,7928
2016-10-18T08:59:59.862Z,8256
2016-10-18T09:00:59.878Z,9212
2016-10-18T09:01:59.814Z,9716
2016-10-18T09:02:59.815Z,10640
2016-10-18T09:03:59.792Z,11452
2016-10-18T09:04:59.988Z,12596
2016-10-18T09:05:59.766Z,12208
2016-10-18T09:06:59.762Z,12020
2016-10-18T09:07:59.749Z,11104
2016-10-18T09:08:59.717Z,9600
2016-10-18T09:09:59.705Z,9340
2016-10-18T09:10:59.717Z,9408
2016-10-18T09:11:59.686Z,9260
2016-10-18T09:12:59.683Z,9160
2016-10-18T09:13:59.653Z,9176
2016-10-18T09:14:59.615Z,9112
2016-10-18T09:15:59.621Z,8776
2016-10-18T09:16:59.628Z,8712
2016-10-18T09:17:59.594Z,8508
2016-10-18T09:18:59.572Z,8172
2016-10-18T09:19:59.554Z,8400
2016-10-18T09:20:59.539Z,8712
2016-10-18T09:21:59.508Z,8828
2016-10-18T09:22:59.500Z,8544
2016-10-18T09:23:59.477Z,8244
2016-10-18T09:24:59.475Z,7704
2016-10-18T09:25:59.437Z,7924
2016-10-18T09:26:59.429Z,9648
2016-10-18T09:27:59.451Z,10896
2016-10-18T09:28:59.415Z,11320
2016-10-18T09:29:59.385Z,11420
2016-10-18T09:30:59.383Z,12032
2016-10-18T09:31:59.362Z,12832
2016-10-18T09:32:59.353Z,11864
2016-10-18T09:33:59.528Z,11344
2016-10-18T09:34:59.301Z,12044
2016-10-18T09:35:59.298Z,11392
2016-10-18T09:36:59.330Z,11904
2016-10-18T09:37:59.269Z,11996
2016-10-18T09:38:59.247Z,13608
2016-10-18T09:39:59.243Z,14296
2016-10-18T09:40:59.221Z,12380
2016-10-18T09:41:59.293Z,10356
2016-10-18T09:42:59.166Z,8704
2016-10-18T09:43:59.166Z,11604
2016-10-18T09:44:59.168Z,14040
2016-10-18T09:45:59.133Z,13820
2016-10-18T09:46:59.117Z,13680
2016-10-18T09:47:59.115Z,13604
2016-10-18T09:48:59.090Z,13024
2016-10-18T09:49:59.125Z,12272
2016-10-18T09:50:59.043Z,11136
2016-10-18T09:51:59.042Z,10320
2016-10-18T09:52:59.043Z,9496
2016-10-18T09:53:59.016Z,8876
2016-10-18T09:54:59.033Z,8848
2016-10-18T09:55:59.020Z,8780
2016-10-18T09:56:59.042Z,9028
2016-10-18T09:57:58.976Z,9332
2016-10-18T09:58:58.956Z,9824
2016-10-18T09:59:58.921Z,10744
2016-10-18T10:00:58.921Z,10552
2016-10-18T10:01:58.892Z,10140
2016-10-18T10:02:58.902Z,9828
2016-10-18T10:03:58.897Z,9344
2016-10-18T10:04:58.871Z,9156
2016-10-18T10:05:58.857Z,9248
2016-10-18T10:06:58.819Z,10476
2016-10-18T10:07:58.817Z,10696
2016-10-18T10:08:58.801Z,10696
2016-10-18T10:09:58.808Z,10468
2016-10-18T10:10:58.787Z,10296
2016-10-18T10:11:58.755Z,10676
2016-10-18T10:12:58.749Z,10596
2016-10-18T10:13:58.733Z,9780
2016-10-18T10:14:58.699Z,9140
2016-10-18T10:15:58.713Z,7816
2016-10-18T10:16:58.685Z,12068
2016-10-18T10:17:58.677Z,14180
2016-10-18T10:18:58.660Z,12280
2016-10-18T10:19:58.644Z,9924
2016-10-18T10:20:58.629Z,11300
2016-10-18T10:21:58.617Z,11592
2016-10-18T10:22:58.613Z,10656
2016-10-18T10:23:58.573Z,11332
2016-10-18T10:24:58.572Z,12180
2016-10-18T10:25:58.559Z,11548
2016-10-18T10:26:58.583Z,10896
2016-10-18T10:27:58.547Z,11968
2016-10-18T10:28:58.507Z,12548
2016-10-18T10:29:58.500Z,11388
2016-10-18T10:30:58.490Z,10984
2016-10-18T10:31:58.798Z,10824
2016-10-18T10:32:58.466Z,11532
2016-10-18T10:33:58.756Z,10296
2016-10-18T10:34:58.450Z,9464
2016-10-18T10:35:58.415Z,8364
2016-10-18T10:36:58.418Z,7976
2016-10-18T10:37:58.368Z,8052
2016-10-18T10:38:58.356Z,8320
2016-10-18T10:39:58.379Z,8832
2016-10-18T10:40:58.357Z,9220
2016-10-18T10:41:58.377Z,9172
2016-10-18T10:42:58.280Z,9152
2016-10-18T10:43:58.297Z,8964
2016-10-18T10:44:58.250Z,9108
2016-10-18T10:45:58.241Z,10068
2016-10-18T10:46:58.225Z,10772
2016-10-18T10:47:58.242Z,11480
2016-10-18T10:48:58.213Z,11928
2016-10-18T10:49:58.191Z,12736
2016-10-18T10:50:58.206Z,13744
2016-10-18T10:51:58.232Z,13300
2016-10-18T10:52:58.185Z,13452
2016-10-18T10:53:58.187Z,12684
2016-10-18T10:54:58.148Z,10212
2016-10-18T10:55:58.162Z,11032
2016-10-18T10:56:58.107Z,11520
2016-10-18T10:57:58.077Z,11192
2016-10-18T10:58:58.079Z,11240
2016-10-18T10:59:58.042Z,11028
2016-10-18T11:00:58.025Z,13652
2016-10-18T11:01:58.026Z,14932
2016-10-18T11:02:58.020Z,13232
2016-10-18T11:03:58.009Z,12784
2016-10-18T11:04:57.982Z,11096
2016-10-18T11:05:57.975Z,9164
2016-10-18T11:06:57.960Z,9536
2016-10-18T11:07:57.909Z,10176
2016-10-18T11:08:57.924Z,11084
2016-10-18T11:09:57.908Z,10996
2016-10-18T11:10:57.936Z,10236
2016-10-18T11:11:57.865Z,10136
2016-10-18T11:12:57.889Z,10588
2016-10-18T11:13:57.829Z,11280
2016-10-18T11:14:57.808Z,12056
2016-10-18T11:15:57.799Z,12392
2016-10-18T11:16:57.800Z,11764
2016-10-18T11:17:57.798Z,10824
2016-10-18T11:18:57.737Z,10232
2016-10-18T11:19:57.739Z,11096
2016-10-18T11:20:57.709Z,13512
2016-10-18T11:21:57.701Z,14020
2016-10-18T11:22:57.705Z,13056
2016-10-18T11:23:57.680Z,12544
2016-10-18T11:24:57.641Z,12568
2016-10-18T11:25:57.656Z,16672
2016-10-18T11:26:57.628Z,18144
2016-10-18T11:27:57.617Z,16364
2016-10-18T11:28:57.577Z,16812
2016-10-18T11:29:57.605Z,16980
2016-10-18T11:30:57.553Z,17696
2016-10-18T11:31:57.580Z,21920
2016-10-18T11:32:57.582Z,21216
2016-10-18T11:33:57.506Z,22080
2016-10-18T11:34:57.508Z,15444
2016-10-18T11:35:57.487Z,16044
2016-10-18T11:36:57.483Z,14844
2016-10-18T11:37:57.497Z,14816
2016-10-18T11:38:57.430Z,11456
2016-10-18T11:39:57.441Z,14160
2016-10-18T11:40:57.448Z,14756
2016-10-18T11:41:57.415Z,14316
2016-10-18T11:42:57.390Z,12840
2016-10-18T11:43:57.379Z,12432
2016-10-18T11:44:57.385Z,14112
2016-10-18T11:45:57.341Z,11064
2016-10-18T11:46:57.327Z,12788
2016-10-18T11:47:57.327Z,13548
2016-10-18T11:48:57.318Z,17856
2016-10-18T11:49:57.320Z,16868
2016-10-18T11:50:57.278Z,14272
2016-10-18T11:51:57.266Z,12656
2016-10-18T11:52:57.314Z,11520
2016-10-18T11:53:57.231Z,11412
2016-10-18T11:54:57.225Z,11752
2016-10-18T11:55:57.238Z,13748
2016-10-18T11:56:57.206Z,14904
2016-10-18T11:57:57.188Z,16304
2016-10-18T11:58:57.193Z,13680
2016-10-18T11:59:57.149Z,11776
2016-10-18T12:00:57.161Z,11900
2016-10-18T12:01:57.112Z,15096
2016-10-18T12:02:57.118Z,16748
2016-10-18T12:03:57.101Z,18048
2016-10-18T12:04:57.102Z,12268
2016-10-18T12:05:57.074Z,10200
2016-10-18T12:06:57.064Z,8804
2016-10-18T12:07:57.029Z,16508
2016-10-18T12:08:57.012Z,20288
2016-10-18T12:09:57.126Z,17760
2016-10-18T12:10:56.981Z,23584
2016-10-18T12:11:56.974Z,14380
2016-10-18T12:12:56.988Z,12880
2016-10-18T12:13:56.966Z,17664
2016-10-18T12:14:57.065Z,13312
2016-10-18T12:15:56.951Z,11240
2016-10-18T12:16:57.203Z,15932
2016-10-18T12:17:56.904Z,16268
2016-10-18T12:18:56.856Z,10764
2016-10-18T12:19:56.854Z,8512
2016-10-18T12:20:56.859Z,10172
2016-10-18T12:21:56.847Z,12632
2016-10-18T12:22:56.810Z,12232
2016-10-18T12:23:56.806Z,11168
2016-10-18T12:24:56.797Z,10540
2016-10-18T12:25:56.807Z,12740
2016-10-18T12:26:56.772Z,13428
2016-10-18T12:27:56.748Z,13444
2016-10-18T12:28:56.732Z,12944
2016-10-18T12:29:57.081Z,12644
2016-10-18T12:30:56.727Z,12972
2016-10-18T12:31:56.683Z,13332
2016-10-18T12:32:56.720Z,10160
2016-10-18T12:33:56.652Z,8112
2016-10-18T12:34:56.644Z,9132
2016-10-18T12:35:56.617Z,9688
2016-10-18T12:36:56.642Z,9288
2016-10-18T12:37:56.582Z,8368
2016-10-18T12:38:56.570Z,8004
2016-10-18T12:39:56.617Z,7960
2016-10-18T12:40:56.553Z,7800
2016-10-18T12:41:56.562Z,7368
2016-10-18T12:42:56.531Z,6596
2016-10-18T12:43:56.549Z,6028
2016-10-18T12:44:56.498Z,5848
2016-10-18T12:45:56.479Z,7144
2016-10-18T12:46:56.444Z,12032
2016-10-18T12:47:56.524Z,16756
2016-10-18T12:48:56.436Z,18048
2016-10-18T12:49:56.495Z,25696
2016-10-18T12:50:56.464Z,14188
2016-10-18T12:51:56.395Z,12432
2016-10-18T12:52:56.412Z,15332
2016-10-18T12:53:56.387Z,18176
2016-10-18T12:54:56.355Z,20160
2016-10-18T12:55:56.338Z,28576
2016-10-18T12:56:56.351Z,16676
2016-10-18T12:57:56.308Z,15000
2016-10-18T12:58:56.326Z,13156
2016-10-18T12:59:56.291Z,12536
2016-10-18T13:00:56.260Z,11688
2016-10-18T13:01:56.290Z,11212
2016-10-18T13:02:56.215Z,10300
2016-10-18T13:03:56.267Z,9332
2016-10-18T13:04:56.291Z,8380
2016-10-18T13:05:56.214Z,8852
2016-10-18T13:06:56.366Z,9212
2016-10-18T13:07:56.212Z,9264
2016-10-18T13:08:56.202Z,9312
2016-10-18T13:09:56.153Z,9008
2016-10-18T13:10:56.113Z,8912
2016-10-18T13:11:56.130Z,9264
2016-10-18T13:12:56.082Z,9172
2016-10-18T13:13:56.105Z,8120
2016-10-18T13:14:56.088Z,7452
2016-10-18T13:15:56.081Z,8340
2016-10-18T13:16:56.045Z,7900
2016-10-18T13:17:56.062Z,7324
2016-10-18T13:18:55.977Z,8540
2016-10-18T13:19:56.037Z,8456
2016-10-18T13:20:56.257Z,7516
2016-10-18T13:21:55.977Z,6020
2016-10-18T13:22:55.963Z,5604
2016-10-18T13:23:55.965Z,5860
2016-10-18T13:24:55.933Z,6024
2016-10-18T13:25:55.958Z,6136
2016-10-18T13:26:55.871Z,7132
2016-10-18T13:27:55.855Z,7016
2016-10-18T13:28:55.879Z,5876
2016-10-18T13:29:55.811Z,5452
2016-10-18T13:30:55.831Z,5568
2016-10-18T13:31:55.819Z,6196
2016-10-18T13:32:55.798Z,7416
2016-10-18T13:33:55.804Z,10164
2016-10-18T13:34:55.783Z,11008
2016-10-18T13:35:56.063Z,6396
2016-10-18T13:36:55.726Z,7656
2016-10-18T13:37:55.681Z,11804
2016-10-18T13:38:55.712Z,10444
2016-10-18T13:39:55.672Z,9788
2016-10-18T13:40:55.662Z,9936
2016-10-18T13:41:55.660Z,8748
2016-10-18T13:42:55.684Z,8508
2016-10-18T13:43:55.598Z,7580
2016-10-18T13:44:55.589Z,7192
2016-10-18T13:45:55.625Z,6908
2016-10-18T13:46:55.605Z,6216